Weather History for Beaumont / Port Arthur, TX

Change the Weather History Date:

Monday, May 5, 2014

  Actual Average (KBPT) Record (KBPT)
Temperature  
Mean Temperature 68 °F 73 °F  
Max Temperature 80 °F 82 °F 91 °F (1952)
Min Temperature 56 °F 64 °F 49 °F (1944)
Degree Days  
Heating Degree Days 0 0  
Month to date heating degree days 0  
Since 1 July heating degree days 1400  
Cooling Degree Days 3 8  
Month to date cooling degree days 40  
Year to date cooling degree days 267  
Growing Degree Days 18 (Base 50)    
Moisture  
Dew Point 59 °F    
Average Humidity 76    
Maximum Humidity 99    
Minimum Humidity 51    
Precipitation  
Precipitation 0.00 in 0.17 in 8.83 in (1944)
Month to date precipitation 0.80  
Year to date precipitation 16.38  
Snow  
Snow 0.00 in 0.00 in 0.00 in ()
Month to date snowfall 0.0  
Since 1 July snowfall T  
Snow Depth -    
Sea Level Pressure  
Sea Level Pressure 30.02 in    
Wind  
Wind Speed 7 mph (South)    
Max Wind Speed 15 mph    
Max Gust Speed 22 mph    
Visibility 10 miles    
Events      
T = Trace of Precipitation, MM = Missing Value Source: NWS Daily Summary

Daily Weather History Graph

Daily Weather History Graph

Search for Another Location

Airport:

Trip Planner

Search our weather history database for the weather conditions in past years. The results will help you decide how hot, cold, wet, or windy it might be!

Date:

Astronomy

May. 05, 2014 Rise Set
Actual Time 6:30 AM CDT 7:57 PM CDT
Civil Twilight 6:04 AM CDT 8:22 PM CDT
Nautical Twilight 5:34 AM CDT 8:53 PM CDT
Astronomical Twilight 5:02 AM CDT 9:25 PM CDT
Moon 11:49 AM CDT (5/5) 12:42 AM CDT (5/5)
Length of Visible Light 14h 17m
Length of Day
13h 26m
Waxing Crescent, 37% of the Moon is Illuminated
May 5
Waxing Crescent
May 6
First Quarter
May 14
Full
May 21
Last Quarter
May 28
New

Hourly Weather History & Observations

Time (CDT) Temp. Heat Index Dew Point Humidity Pressure Visibility Wind Dir Wind Speed Gust Speed Precip Events Conditions
12:15 AM 58.5 °F - 56.3 °F 93% 30.09 in 10.0 mi South 6.9 mph - N/A   Clear
12:35 AM 57.6 °F - 55.9 °F 94% 30.09 in 10.0 mi SE 4.6 mph - N/A   Clear
12:55 AM 56.3 °F - 55.8 °F 98% 30.09 in 10.0 mi SSE 4.6 mph - N/A   Clear
1:15 AM 56.1 °F - 55.6 °F 98% 30.09 in 10.0 mi SE 5.8 mph - N/A   Clear
1:35 AM 56.7 °F - 55.8 °F 97% 30.08 in 10.0 mi Calm Calm - N/A   Clear
1:55 AM 56.1 °F - 55.4 °F 97% 30.08 in 10.0 mi South 6.9 mph - N/A   Clear
2:15 AM 56.5 °F - 55.9 °F 98% 30.07 in 10.0 mi SE 4.6 mph - N/A   Clear
2:35 AM 57.0 °F - 56.3 °F 97% 30.07 in 10.0 mi South 4.6 mph - N/A   Clear
2:55 AM 56.5 °F - 55.8 °F 97% 30.07 in 10.0 mi SSE 4.6 mph - N/A   Clear
3:15 AM 57.2 °F - 56.3 °F 97% 30.06 in 10.0 mi South 5.8 mph - N/A   Clear
3:35 AM 57.4 °F - 56.5 °F 97% 30.06 in 10.0 mi South 5.8 mph - N/A   Clear
3:55 AM 57.2 °F - 56.5 °F 97% 30.05 in 10.0 mi SE 6.9 mph - N/A   Clear
4:15 AM 57.9 °F - 56.8 °F 96% 30.05 in 10.0 mi SE 5.8 mph - N/A   Clear
4:35 AM 58.1 °F - 57.0 °F 96% 30.05 in 10.0 mi SE 5.8 mph - N/A   Clear
4:55 AM 57.4 °F - 56.3 °F 96% 30.04 in 10.0 mi SSE 5.8 mph - N/A   Clear
5:15 AM 57.6 °F - 56.8 °F 97% 30.04 in 10.0 mi SSE 5.8 mph - N/A   Clear
5:35 AM 57.6 °F - 56.7 °F 97% 30.03 in 10.0 mi SE 5.8 mph - N/A   Clear
5:55 AM 57.2 °F - 56.7 °F 98% 30.03 in 10.0 mi SE 5.8 mph - N/A   Clear
6:15 AM 57.4 °F - 57.0 °F 99% 30.04 in 10.0 mi SSE 4.6 mph - N/A   Clear
6:35 AM 57.6 °F - 57.2 °F 99% 30.05 in 7.0 mi SSE 5.8 mph - N/A   Clear
6:55 AM 57.9 °F - 57.4 °F 98% 30.05 in 7.0 mi ESE 5.8 mph - N/A   Clear
7:15 AM 59.4 °F - 59.0 °F 99% 30.05 in 7.0 mi SE 4.6 mph - N/A   Clear
7:35 AM 61.9 °F - 60.3 °F 94% 30.05 in 10.0 mi South 5.8 mph - N/A   Clear
7:55 AM 63.9 °F - 61.2 °F 91% 30.05 in 10.0 mi South 5.8 mph - N/A   Clear
8:15 AM 66.2 °F - 61.9 °F 86% 30.05 in 10.0 mi South 6.9 mph - N/A   Clear
8:35 AM 68.2 °F - 62.1 °F 81% 30.06 in 10.0 mi SSW 8.1 mph - N/A   Scattered Clouds
8:55 AM 70.2 °F - 61.3 °F 74% 30.06 in 10.0 mi SSW 8.1 mph - N/A   Clear
9:15 AM 72.0 °F - 61.3 °F 69% 30.06 in 10.0 mi South 12.7 mph 17.3 mph N/A   Clear
9:35 AM 72.3 °F - 60.3 °F 66% 30.07 in 10.0 mi South 12.7 mph 19.6 mph N/A   Mostly Cloudy
9:55 AM 75.4 °F - 60.8 °F 60% 30.07 in 10.0 mi SSW 11.5 mph 18.4 mph N/A   Overcast
10:15 AM 76.5 °F - 61.0 °F 59% 30.07 in 10.0 mi SSW 9.2 mph 19.6 mph N/A   Overcast
10:35 AM 73.8 °F - 60.3 °F 63% 30.07 in 10.0 mi SSW 11.5 mph 16.1 mph N/A   Overcast
10:55 AM 75.4 °F - 60.1 °F 59% 30.07 in 10.0 mi SSW 11.5 mph 19.6 mph N/A   Overcast
11:15 AM 75.9 °F - 59.7 °F 57% 30.07 in 10.0 mi South 11.5 mph 20.7 mph N/A   Mostly Cloudy
11:35 AM 77.5 °F - 60.1 °F 55% 30.06 in 10.0 mi South 12.7 mph 21.9 mph N/A   Scattered Clouds
11:55 AM 77.9 °F - 60.4 °F 55% 30.06 in 10.0 mi SW 11.5 mph 18.4 mph N/A   Mostly Cloudy
12:15 PM 78.3 °F - 60.1 °F 53% 30.06 in 10.0 mi SSW 10.4 mph 21.9 mph N/A   Mostly Cloudy
12:35 PM 78.8 °F - 60.4 °F 53% 30.05 in 10.0 mi South 9.2 mph 17.3 mph N/A   Scattered Clouds
12:55 PM 79.5 °F - 61.3 °F 54% 30.05 in 10.0 mi SSW 13.8 mph 19.6 mph N/A   Scattered Clouds
1:15 PM 79.7 °F - 60.3 °F 51% 30.04 in 10.0 mi SSW 13.8 mph 19.6 mph N/A   Scattered Clouds
1:35 PM 79.3 °F - 60.3 °F 52% 30.03 in 10.0 mi SSW 12.7 mph 20.7 mph N/A   Scattered Clouds
1:55 PM 80.4 °F 81.3 °F 60.8 °F 51% 30.03 in 10.0 mi South 12.7 mph 19.6 mph N/A   Scattered Clouds
2:15 PM 79.7 °F - 60.4 °F 52% 30.02 in 10.0 mi SSW 10.4 mph 21.9 mph N/A   Scattered Clouds
2:35 PM 79.3 °F - 60.4 °F 52% 30.02 in 10.0 mi SSW 13.8 mph 18.4 mph N/A   Scattered Clouds
2:55 PM 79.5 °F - 60.3 °F 52% 30.01 in 10.0 mi South 13.8 mph 19.6 mph N/A   Scattered Clouds
3:15 PM 79.5 °F - 60.4 °F 52% 30.00 in 10.0 mi SSW 11.5 mph 18.4 mph N/A   Scattered Clouds
3:35 PM 79.7 °F - 60.6 °F 52% 29.99 in 10.0 mi South 12.7 mph 20.7 mph N/A   Clear
3:55 PM 79.7 °F - 60.4 °F 52% 29.98 in 10.0 mi South 8.1 mph 18.4 mph N/A   Clear
4:15 PM 79.7 °F - 60.3 °F 51% 29.97 in 10.0 mi SSW 12.7 mph 17.3 mph N/A   Clear
4:35 PM 78.8 °F - 60.3 °F 53% 29.97 in 10.0 mi SSE 9.2 mph 17.3 mph N/A   Clear
4:55 PM 78.3 °F - 60.3 °F 54% 29.97 in 10.0 mi SSE 13.8 mph - N/A   Clear
5:15 PM 78.3 °F - 59.7 °F 53% 29.97 in 10.0 mi South 13.8 mph 20.7 mph N/A   Clear
5:35 PM 77.2 °F - 59.4 °F 54% 29.96 in 10.0 mi South 8.1 mph - N/A   Clear
5:55 PM 77.0 °F - 59.4 °F 54% 29.96 in 10.0 mi South 15.0 mph 18.4 mph N/A   Clear
6:15 PM 76.3 °F - 59.7 °F 56% 29.95 in 10.0 mi South 11.5 mph 16.1 mph N/A   Clear
6:35 PM 75.2 °F - 59.9 °F 59% 29.95 in 10.0 mi South 8.1 mph 16.1 mph N/A   Clear
6:55 PM 73.8 °F - 59.9 °F 62% 29.94 in 10.0 mi South 8.1 mph 20.7 mph N/A   Clear
7:15 PM 72.5 °F - 59.5 °F 64% 29.94 in 10.0 mi SSE 9.2 mph 18.4 mph N/A   Clear
7:35 PM 70.9 °F - 59.9 °F 68% 29.94 in 10.0 mi South 6.9 mph 19.6 mph N/A   Clear
7:55 PM 69.3 °F - 59.9 °F 72% 29.95 in 10.0 mi South 5.8 mph - N/A   Clear
8:15 PM 67.8 °F - 60.3 °F 77% 29.95 in 10.0 mi South 5.8 mph - N/A   Clear
8:35 PM 67.1 °F - 60.4 °F 79% 29.95 in 10.0 mi South 5.8 mph - N/A   Clear
8:55 PM 65.5 °F - 60.3 °F 83% 29.95 in 10.0 mi South 5.8 mph - N/A   Clear
9:15 PM 64.8 °F - 60.3 °F 85% 29.95 in 10.0 mi South 5.8 mph - N/A   Clear
9:35 PM 64.2 °F - 60.1 °F 86% 29.96 in 10.0 mi South 5.8 mph - N/A   Clear
9:55 PM 63.5 °F - 59.9 °F 88% 29.96 in 10.0 mi South 5.8 mph - N/A   Clear
10:15 PM 63.0 °F - 59.9 °F 90% 29.96 in 10.0 mi South 6.9 mph - N/A   Clear
10:35 PM 62.6 °F - 59.5 °F 90% 29.97 in 10.0 mi South 9.2 mph - N/A   Clear
10:55 PM 62.1 °F - 59.4 °F 91% 29.97 in 10.0 mi South 10.4 mph - N/A   Clear
11:15 PM 61.7 °F - 59.2 °F 91% 29.97 in 10.0 mi South 10.4 mph - N/A   Clear
11:35 PM 61.0 °F - 59.0 °F 93% 29.97 in 10.0 mi South 9.2 mph - N/A   Clear
11:55 PM 60.4 °F - 59.0 °F 95% 29.96 in 10.0 mi South 10.4 mph - N/A   Clear